Time;durP1;ratioP1;P1;durP2;ratioP2;P2;SDS_P1;SDS_P2;PMS_P1;PMS_P2;Temp;Humidity;BMP_temperature;BMP_pressure;BME280_temperature;BME280_humidity;BME280_pressure;Samples;Min_cycle;Max_cycle;Signal;HPM_P1;HPM_P2
2020/12/04 00:01:59;;;;;;;35.08;15.55;;;;;;;;;;5134481;27;20023;-79
2020/12/04 00:04:25;;;;;;;37.28;14.55;;;;;;;;;;5134312;27;20142;-79
2020/12/04 00:06:51;;;;;;;32.22;13.32;;;;;;;;;;5134049;27;20106;-79
2020/12/04 00:09:18;;;;;;;45.70;15.50;;;;;;;;;;5134310;27;20025;-79
2020/12/04 00:11:44;;;;;;;41.30;15.70;;;;;;;;;;5133520;27;20027;-79
2020/12/04 00:14:10;;;;;;;38.33;14.73;;;;;;;;;;5134291;27;20031;-79
2020/12/04 00:16:37;;;;;;;36.05;14.32;;;;;;;;;;5115513;28;20016;-79
2020/12/04 00:19:03;;;;;;;35.35;14.43;;;;;;;;;;5134114;27;20027;-78
2020/12/04 00:21:29;;;;;;;34.88;14.45;;;;;;;;;;5115748;28;20067;-78
2020/12/04 00:23:56;;;;;;;34.25;13.85;;;;;;;;;;5134056;28;20177;-79
2020/12/04 00:26:22;;;;;;;26.33;11.45;;;;;;;;;;5134171;27;20024;-79
2020/12/04 00:28:48;;;;;;;31.05;12.23;;;;;;;;;;5133779;28;20027;-79
2020/12/04 00:31:16;;;;;;;36.45;14.85;;;;;;;;;;5115661;28;20023;-79
2020/12/04 00:33:42;;;;;;;32.10;12.82;;;;;;;;;;5133929;28;20027;-78
2020/12/04 00:36:09;;;;;;;36.45;12.98;;;;;;;;;;5134106;27;20459;-79
2020/12/04 00:38:35;;;;;;;33.20;12.35;;;;;;;;;;5133683;27;20023;-78
2020/12/04 00:41:03;;;;;;;28.00;11.50;;;;;;;;;;5134129;28;20080;-79
2020/12/04 00:43:32;;;;;;;33.95;13.88;;;;;;;;;;5133804;27;20552;-79
2020/12/04 00:46:00;;;;;;;29.98;12.32;;;;;;;;;;5133870;27;20026;-79
2020/12/04 00:48:26;;;;;;;30.80;12.85;;;;;;;;;;5133540;27;20030;-79
2020/12/04 00:50:53;;;;;;;27.58;12.52;;;;;;;;;;5133483;27;20050;-79
2020/12/04 00:53:19;;;;;;;31.92;12.88;;;;;;;;;;5115166;28;20039;-77
2020/12/04 00:55:45;;;;;;;40.17;14.98;;;;;;;;;;5133744;28;20027;-79
2020/12/04 00:58:12;;;;;;;38.95;13.65;;;;;;;;;;5115022;28;20153;-77
2020/12/04 01:00:38;;;;;;;31.58;13.40;;;;;;;;;;5133713;28;20034;-80
2020/12/04 01:03:04;;;;;;;31.88;13.25;;;;;;;;;;5115250;28;20046;-79
2020/12/04 01:05:31;;;;;;;38.67;14.43;;;;;;;;;;5133638;28;20094;-79
2020/12/04 01:07:57;;;;;;;32.30;12.77;;;;;;;;;;5133396;28;20028;-78
2020/12/04 01:10:23;;;;;;;29.58;12.25;;;;;;;;;;5133715;28;20034;-79
2020/12/04 01:12:49;;;;;;;36.15;13.57;;;;;;;;;;5133807;27;20337;-79
2020/12/04 01:15:16;;;;;;;35.97;13.23;;;;;;;;;;5115186;28;20019;-78
2020/12/04 01:17:42;;;;;;;31.80;13.32;;;;;;;;;;5115005;28;20489;-79
2020/12/04 01:20:08;;;;;;;34.25;13.68;;;;;;;;;;5133647;28;20027;-78
2020/12/04 01:22:35;;;;;;;29.92;12.38;;;;;;;;;;5134514;27;20046;-79
2020/12/04 01:25:01;;;;;;;31.92;12.68;;;;;;;;;;5137645;27;20024;-79
2020/12/04 01:27:28;;;;;;;34.13;12.38;;;;;;;;;;5137071;27;20418;-79
2020/12/04 01:29:54;;;;;;;33.75;13.52;;;;;;;;;;5137157;27;20053;-79
2020/12/04 01:32:20;;;;;;;32.65;14.02;;;;;;;;;;5118879;27;20460;-81
2020/12/04 01:34:46;;;;;;;31.33;13.27;;;;;;;;;;5113832;27;20057;-79
2020/12/04 01:37:12;;;;;;;28.33;11.90;;;;;;;;;;5098297;28;20042;-79
2020/12/04 01:39:38;;;;;;;30.50;12.70;;;;;;;;;;5116448;28;20031;-78
2020/12/04 01:42:05;;;;;;;26.27;12.27;;;;;;;;;;5116446;28;20028;-77
2020/12/04 01:44:31;;;;;;;32.78;13.38;;;;;;;;;;5116422;28;20031;-78
2020/12/04 01:46:58;;;;;;;29.73;13.05;;;;;;;;;;5116369;28;20153;-78
2020/12/04 01:49:24;;;;;;;33.45;13.55;;;;;;;;;;5116276;28;20396;-78
2020/12/04 01:51:51;;;;;;;34.50;13.50;;;;;;;;;;5115808;28;20063;-78
2020/12/04 01:54:17;;;;;;;32.92;12.68;;;;;;;;;;5097911;28;20049;-78
2020/12/04 01:56:44;;;;;;;32.17;14.05;;;;;;;;;;5116418;28;20157;-77
2020/12/04 01:59:10;;;;;;;30.55;13.30;;;;;;;;;;5116170;28;20035;-77
2020/12/04 02:01:38;;;;;;;32.72;13.50;;;;;;;;;;5116136;28;20024;-78
2020/12/04 02:04:07;;;;;;;32.65;12.93;;;;;;;;;;5097666;28;20027;-78
2020/12/04 02:06:48;;;;;;;24.50;11.15;;;;;;;;;;5097743;28;20124;-78
2020/12/04 02:09:18;;;;;;;33.20;12.38;;;;;;;;;;5097631;28;20031;-79
2020/12/04 02:11:46;;;;;;;30.05;12.77;;;;;;;;;;5115973;28;20461;-78
2020/12/04 02:14:13;;;;;;;34.08;13.02;;;;;;;;;;5097428;28;20042;-78
2020/12/04 02:16:43;;;;;;;32.38;12.63;;;;;;;;;;5115904;28;20023;-77
2020/12/04 02:19:10;;;;;;;41.95;14.32;;;;;;;;;;5097460;28;20438;-77
2020/12/04 02:21:36;;;;;;;33.53;12.63;;;;;;;;;;5115445;28;20027;-78
2020/12/04 02:24:02;;;;;;;32.63;12.80;;;;;;;;;;5115749;28;20081;-78
2020/12/04 02:26:29;;;;;;;33.33;13.00;;;;;;;;;;5097363;28;20062;-79
2020/12/04 02:28:55;;;;;;;35.78;13.85;;;;;;;;;;5115640;28;20099;-78
2020/12/04 02:31:22;;;;;;;30.08;13.52;;;;;;;;;;5115430;28;20404;-77
2020/12/04 02:33:48;;;;;;;32.47;12.45;;;;;;;;;;5114785;28;20043;-78
2020/12/04 02:36:15;;;;;;;35.17;15.18;;;;;;;;;;5115359;28;20019;-78
2020/12/04 02:38:42;;;;;;;32.28;13.30;;;;;;;;;;5097021;28;20068;-78
2020/12/04 02:41:09;;;;;;;36.75;14.13;;;;;;;;;;5115446;28;20020;-78
2020/12/04 02:43:36;;;;;;;34.55;13.70;;;;;;;;;;5097026;28;20038;-78
2020/12/04 02:46:02;;;;;;;30.83;12.30;;;;;;;;;;5115051;28;20540;-78
2020/12/04 02:48:29;;;;;;;39.28;12.68;;;;;;;;;;5115335;28;20023;-78
2020/12/04 02:50:55;;;;;;;31.33;12.02;;;;;;;;;;5115058;28;20492;-79
2020/12/04 02:53:22;;;;;;;32.15;12.75;;;;;;;;;;5115054;28;20023;-78
2020/12/04 02:55:48;;;;;;;30.80;12.73;;;;;;;;;;5115145;28;20115;-77
2020/12/04 02:58:15;;;;;;;27.42;11.23;;;;;;;;;;5114883;28;20023;-77
2020/12/04 03:00:41;;;;;;;31.52;12.55;;;;;;;;;;5115214;28;20106;-77
2020/12/04 03:03:08;;;;;;;31.52;12.60;;;;;;;;;;5115025;28;20070;-78
2020/12/04 03:05:34;;;;;;;31.40;13.38;;;;;;;;;;5096315;28;20077;-78
2020/12/04 03:08:00;;;;;;;38.53;13.63;;;;;;;;;;5096656;28;20015;-77
2020/12/04 03:10:26;;;;;;;33.50;13.35;;;;;;;;;;5114676;28;20031;-78
2020/12/04 03:12:53;;;;;;;34.58;13.43;;;;;;;;;;5114722;28;20031;-77
2020/12/04 03:15:19;;;;;;;31.92;12.93;;;;;;;;;;5114567;28;20030;-78
2020/12/04 03:17:46;;;;;;;31.98;12.93;;;;;;;;;;5114396;28;20031;-77
2020/12/04 03:20:13;;;;;;;34.35;12.52;;;;;;;;;;5114606;28;20024;-77
2020/12/04 03:22:39;;;;;;;39.30;13.98;;;;;;;;;;5114454;28;20031;-78
2020/12/04 03:25:05;;;;;;;33.60;12.55;;;;;;;;;;5114463;28;20031;-78
2020/12/04 03:27:32;;;;;;;27.50;10.77;;;;;;;;;;5095991;28;20388;-78
2020/12/04 03:29:58;;;;;;;34.08;12.60;;;;;;;;;;5114290;28;20055;-79
2020/12/04 03:32:24;;;;;;;34.80;12.60;;;;;;;;;;5114337;28;20035;-78
2020/12/04 03:34:50;;;;;;;34.22;12.68;;;;;;;;;;5114227;28;20404;-78
2020/12/04 03:37:17;;;;;;;43.13;14.93;;;;;;;;;;5095928;28;20023;-78
2020/12/04 03:39:43;;;;;;;36.35;13.98;;;;;;;;;;5095861;28;20027;-78
2020/12/04 03:42:10;;;;;;;32.35;13.00;;;;;;;;;;5114317;28;20098;-79
2020/12/04 03:44:36;;;;;;;30.73;12.27;;;;;;;;;;5114123;28;20076;-78
2020/12/04 03:47:02;;;;;;;34.17;13.38;;;;;;;;;;5095734;28;20489;-78
2020/12/04 03:49:28;;;;;;;34.83;14.25;;;;;;;;;;5114149;28;20034;-78
2020/12/04 03:51:55;;;;;;;31.77;11.23;;;;;;;;;;5095420;28;20035;-78
2020/12/04 03:54:21;;;;;;;36.78;13.95;;;;;;;;;;5113945;28;20054;-77
2020/12/04 03:56:47;;;;;;;38.17;14.38;;;;;;;;;;5114022;28;20089;-77
2020/12/04 03:59:14;;;;;;;35.65;12.75;;;;;;;;;;5113816;28;20023;-78
2020/12/04 04:01:40;;;;;;;30.75;11.95;;;;;;;;;;5113879;28;20024;-78
2020/12/04 04:04:07;;;;;;;37.28;13.10;;;;;;;;;;5113672;28;20159;-78
2020/12/04 04:06:33;;;;;;;28.13;9.38;;;;;;;;;;5113670;28;20024;-77
2020/12/04 04:08:59;;;;;;;32.33;11.27;;;;;;;;;;5113732;28;20028;-78
2020/12/04 04:11:25;;;;;;;29.73;12.38;;;;;;;;;;5095577;28;20019;-77
2020/12/04 04:13:52;;;;;;;32.45;10.95;;;;;;;;;;5113683;28;20035;-78
2020/12/04 04:16:18;;;;;;;39.38;13.38;;;;;;;;;;5113472;28;20024;-77
2020/12/04 04:18:45;;;;;;;34.60;11.45;;;;;;;;;;5113512;28;20073;-77
2020/12/04 04:21:12;;;;;;;37.55;12.32;;;;;;;;;;5113626;28;20043;-76
2020/12/04 04:23:39;;;;;;;32.97;13.68;;;;;;;;;;5095402;28;20495;-77
2020/12/04 04:26:05;;;;;;;41.92;14.65;;;;;;;;;;5113479;28;20380;-78
2020/12/04 04:28:32;;;;;;;43.60;14.40;;;;;;;;;;5113292;28;20023;-77
2020/12/04 04:30:58;;;;;;;36.10;13.48;;;;;;;;;;5113435;28;20024;-78
2020/12/04 04:33:25;;;;;;;40.00;15.20;;;;;;;;;;5113406;28;20081;-77
2020/12/04 04:35:52;;;;;;;42.55;14.40;;;;;;;;;;5095128;28;20488;-77
2020/12/04 04:38:18;;;;;;;49.88;17.48;;;;;;;;;;5113400;28;20106;-78
2020/12/04 04:40:44;;;;;;;57.58;17.65;;;;;;;;;;5113244;28;20019;-78
2020/12/04 04:43:12;;;;;;;41.90;16.27;;;;;;;;;;5113375;28;20030;-78
2020/12/04 04:45:41;;;;;;;29.30;11.55;;;;;;;;;;5113408;28;20031;-79
2020/12/04 04:48:37;;;;;;;37.85;14.27;;;;;;;;;;5118590;28;20034;-78
2020/12/04 04:51:03;;;;;;;43.22;15.63;;;;;;;;;;5095681;28;20044;-77
2020/12/04 04:53:30;;;;;;;34.13;12.98;;;;;;;;;;5095050;28;20480;-78
2020/12/04 04:55:56;;;;;;;33.13;12.63;;;;;;;;;;5095686;28;20023;-80
2020/12/04 04:58:22;;;;;;;30.85;13.27;;;;;;;;;;5099096;28;20122;-78
2020/12/04 05:00:48;;;;;;;38.83;12.77;;;;;;;;;;5099019;28;20030;-78
2020/12/04 05:03:15;;;;;;;32.53;12.68;;;;;;;;;;5116946;28;20024;-78
2020/12/04 05:05:42;;;;;;;33.03;11.88;;;;;;;;;;5117468;28;20119;-80
2020/12/04 05:08:16;;;;;;;28.20;11.38;;;;;;;;;;5102296;27;20499;-78
2020/12/04 05:10:43;;;;;;;29.65;10.77;;;;;;;;;;5113354;28;20118;-77
2020/12/04 05:13:10;;;;;;;28.75;13.05;;;;;;;;;;5098720;28;20461;-79
2020/12/04 05:15:36;;;;;;;36.60;13.85;;;;;;;;;;5117013;28;20028;-79
2020/12/04 05:18:06;;;;;;;35.50;12.80;;;;;;;;;;5117088;28;20031;-79
2020/12/04 05:20:33;;;;;;;41.10;14.48;;;;;;;;;;5116898;28;20027;-76
2020/12/04 05:23:01;;;;;;;33.35;12.10;;;;;;;;;;5116695;28;20081;-77
2020/12/04 05:25:27;;;;;;;39.03;13.77;;;;;;;;;;5116860;28;20057;-78
2020/12/04 05:27:54;;;;;;;27.85;10.85;;;;;;;;;;5116674;28;20052;-77
2020/12/04 05:30:26;;;;;;;31.33;12.55;;;;;;;;;;5116463;28;20024;-76
2020/12/04 05:33:04;;;;;;;32.47;12.20;;;;;;;;;;5098479;28;20111;-78
2020/12/04 05:35:30;;;;;;;32.65;12.85;;;;;;;;;;5098110;28;20028;-78
2020/12/04 05:38:11;;;;;;;39.25;12.38;;;;;;;;;;5116710;28;20019;-79
2020/12/04 05:40:37;;;;;;;31.17;11.55;;;;;;;;;;5098402;28;20032;-77
2020/12/04 05:43:04;;;;;;;30.65;12.20;;;;;;;;;;5116637;28;20031;-78
2020/12/04 05:45:33;;;;;;;28.65;10.95;;;;;;;;;;5097847;28;20126;-85
2020/12/04 05:48:00;;;;;;;35.42;12.73;;;;;;;;;;5116637;28;20027;-79
2020/12/04 05:50:27;;;;;;;25.85;11.23;;;;;;;;;;5116449;28;20059;-83
2020/12/04 05:52:53;;;;;;;31.40;12.57;;;;;;;;;;5122510;27;20029;-78
2020/12/04 05:55:19;;;;;;;30.25;12.30;;;;;;;;;;5118680;27;20027;-78
2020/12/04 05:57:56;;;;;;;23.40;10.85;;;;;;;;;;5118568;27;20447;-83
2020/12/04 06:00:22;;;;;;;28.13;10.98;;;;;;;;;;5118350;27;20034;-77
2020/12/04 06:03:01;;;;;;;34.13;11.40;;;;;;;;;;5136470;27;20030;-78
2020/12/04 06:05:28;;;;;;;30.08;11.10;;;;;;;;;;5118210;27;20031;-83
2020/12/04 06:08:00;;;;;;;28.05;10.80;;;;;;;;;;5136539;27;20027;-82
2020/12/04 06:10:27;;;;;;;30.67;10.38;;;;;;;;;;5116835;27;20441;-82
2020/12/04 06:12:54;;;;;;;28.77;11.95;;;;;;;;;;5118139;27;20042;-83
2020/12/04 06:15:21;;;;;;;27.90;11.57;;;;;;;;;;5136945;27;20031;-77
2020/12/04 06:17:47;;;;;;;36.83;13.27;;;;;;;;;;5136418;27;20035;-83
2020/12/04 06:20:18;;;;;;;26.73;11.05;;;;;;;;;;5118151;27;20110;-83
2020/12/04 06:23:03;;;;;;;30.08;11.07;;;;;;;;;;5117783;27;20020;-82
2020/12/04 06:25:49;;;;;;;28.60;11.05;;;;;;;;;;5118145;27;20471;-77
2020/12/04 06:28:16;;;;;;;36.72;11.20;;;;;;;;;;5136284;27;20043;-83
2020/12/04 06:30:57;;;;;;;29.17;12.43;;;;;;;;;;5135872;27;20030;-82
2020/12/04 06:33:41;;;;;;;28.02;11.77;;;;;;;;;;5136216;27;20403;-77
2020/12/04 06:36:09;;;;;;;31.60;12.18;;;;;;;;;;5117645;27;20077;-77
2020/12/04 06:38:36;;;;;;;30.67;12.27;;;;;;;;;;5117752;27;20045;-76
2020/12/04 06:41:21;;;;;;;32.28;13.52;;;;;;;;;;5135813;27;20072;-77
2020/12/04 06:43:48;;;;;;;34.72;14.45;;;;;;;;;;5117537;27;20203;-77
2020/12/04 06:46:29;;;;;;;33.17;13.43;;;;;;;;;;5135823;27;20024;-76
2020/12/04 06:49:08;;;;;;;23.13;9.93;;;;;;;;;;5117346;27;20507;-77
2020/12/04 06:51:34;;;;;;;29.08;12.45;;;;;;;;;;5113870;28;20500;-82
2020/12/04 06:54:01;;;;;;;26.58;11.35;;;;;;;;;;5113901;28;20027;-77
2020/12/04 06:56:27;;;;;;;27.63;12.68;;;;;;;;;;5113843;28;20024;-82
2020/12/04 06:58:54;;;;;;;33.92;11.23;;;;;;;;;;5114017;28;20136;-82
2020/12/04 07:01:20;;;;;;;36.95;12.00;;;;;;;;;;5114973;28;20040;-83
2020/12/04 07:03:47;;;;;;;33.05;10.82;;;;;;;;;;5113676;28;20396;-84
2020/12/04 07:06:25;;;;;;;34.45;10.85;;;;;;;;;;5115504;28;20464;-82
2020/12/04 07:08:55;;;;;;;28.10;11.32;;;;;;;;;;5113581;28;20027;-82
2020/12/04 07:11:23;;;;;;;24.15;10.57;;;;;;;;;;5113450;28;20027;-80
2020/12/04 07:13:50;;;;;;;29.90;11.38;;;;;;;;;;5113358;28;20066;-83
2020/12/04 07:16:17;;;;;;;27.58;11.55;;;;;;;;;;5113462;28;20020;-78
2020/12/04 07:18:43;;;;;;;30.83;11.18;;;;;;;;;;5114532;28;20024;-78
2020/12/04 07:21:09;;;;;;;36.00;12.10;;;;;;;;;;5114069;28;20357;-78
2020/12/04 07:23:36;;;;;;;31.83;12.48;;;;;;;;;;5114506;28;20028;-78
2020/12/04 07:26:03;;;;;;;30.98;12.02;;;;;;;;;;5113243;28;20023;-78
2020/12/04 07:28:32;;;;;;;44.90;12.77;;;;;;;;;;5113062;28;20039;-77
2020/12/04 07:30:59;;;;;;;38.13;13.05;;;;;;;;;;5113217;28;20031;-78
2020/12/04 07:33:26;;;;;;;30.52;11.68;;;;;;;;;;5114255;28;20043;-78
2020/12/04 07:36:03;;;;;;;28.33;11.25;;;;;;;;;;5114366;28;20498;-78
2020/12/04 07:38:30;;;;;;;30.02;12.55;;;;;;;;;;5113017;28;20426;-78
2020/12/04 07:40:56;;;;;;;28.83;11.00;;;;;;;;;;5114190;28;20051;-77
2020/12/04 07:43:23;;;;;;;38.35;13.90;;;;;;;;;;5113965;28;20106;-78
2020/12/04 07:45:56;;;;;;;30.92;12.05;;;;;;;;;;5114183;28;20058;-78
2020/12/04 07:48:23;;;;;;;30.92;12.35;;;;;;;;;;5114142;28;20055;-78
2020/12/04 07:50:49;;;;;;;37.30;12.38;;;;;;;;;;5124153;27;20046;-78
2020/12/04 07:53:16;;;;;;;32.85;11.80;;;;;;;;;;5134383;27;20051;-83
2020/12/04 07:55:45;;;;;;;32.05;13.43;;;;;;;;;;5134588;27;20027;-78
2020/12/04 07:58:15;;;;;;;32.90;12.80;;;;;;;;;;5134156;27;20426;-78
2020/12/04 08:00:43;;;;;;;35.63;13.05;;;;;;;;;;5115980;27;20532;-78
2020/12/04 08:03:11;;;;;;;31.70;12.82;;;;;;;;;;5116051;27;20567;-78
2020/12/04 08:05:39;;;;;;;29.40;12.23;;;;;;;;;;5134229;27;20027;-78
2020/12/04 08:08:06;;;;;;;30.45;10.90;;;;;;;;;;5115700;27;20027;-76
2020/12/04 08:10:32;;;;;;;28.00;12.00;;;;;;;;;;5115634;27;20107;-83
2020/12/04 08:12:59;;;;;;;29.60;11.75;;;;;;;;;;5115621;28;20491;-78
2020/12/04 08:15:26;;;;;;;32.45;11.63;;;;;;;;;;5115686;27;20019;-77
2020/12/04 08:18:01;;;;;;;30.85;10.90;;;;;;;;;;5134184;27;20027;-79
2020/12/04 08:20:28;;;;;;;26.38;10.75;;;;;;;;;;5115699;28;20332;-78
2020/12/04 08:22:54;;;;;;;25.95;9.40;;;;;;;;;;5115711;27;20388;-80
2020/12/04 08:25:27;;;;;;;30.33;11.13;;;;;;;;;;5115418;28;20023;-82
2020/12/04 08:27:54;;;;;;;24.42;8.75;;;;;;;;;;5115804;28;20107;-76
2020/12/04 08:30:27;;;;;;;27.05;10.60;;;;;;;;;;5133763;27;20182;-76
2020/12/04 08:32:53;;;;;;;34.03;12.35;;;;;;;;;;5117104;27;20034;-76
2020/12/04 08:35:21;;;;;;;33.30;12.38;;;;;;;;;;5138370;27;20031;-76
2020/12/04 08:37:48;;;;;;;28.08;11.07;;;;;;;;;;5119328;27;20030;-76
2020/12/04 08:40:20;;;;;;;28.13;11.63;;;;;;;;;;5119327;27;20107;-77
2020/12/04 08:42:47;;;;;;;28.40;11.55;;;;;;;;;;5098713;28;20030;-77
2020/12/04 08:45:13;;;;;;;27.08;11.52;;;;;;;;;;5117439;28;20081;-77
2020/12/04 08:47:44;;;;;;;29.13;11.48;;;;;;;;;;5117434;28;20436;-78
2020/12/04 08:50:21;;;;;;;35.08;12.95;;;;;;;;;;5117091;28;20039;-78
2020/12/04 08:52:48;;;;;;;38.03;11.27;;;;;;;;;;5109671;27;20539;-78
2020/12/04 08:55:25;;;;;;;33.42;11.07;;;;;;;;;;5117340;27;20039;-79
2020/12/04 08:57:52;;;;;;;30.48;11.95;;;;;;;;;;5112009;27;20048;-82
2020/12/04 09:00:20;;;;;;;31.65;10.38;;;;;;;;;;5118172;27;20050;-77
2020/12/04 09:02:47;;;;;;;25.48;11.05;;;;;;;;;;5119086;27;20051;-80
2020/12/04 09:05:15;;;;;;;29.45;9.88;;;;;;;;;;5127743;27;20094;-78
2020/12/04 09:07:42;;;;;;;28.45;10.93;;;;;;;;;;5107593;27;20452;-74
2020/12/04 09:10:10;;;;;;;27.88;11.52;;;;;;;;;;5129818;27;20019;-77
2020/12/04 09:12:38;;;;;;;26.45;10.60;;;;;;;;;;5118939;27;20161;-77
2020/12/04 09:15:05;;;;;;;28.52;10.15;;;;;;;;;;5118688;27;20035;-76
2020/12/04 09:17:31;;;;;;;18.48;7.72;;;;;;;;;;5118906;27;20015;-77
2020/12/04 09:19:57;;;;;;;31.58;11.88;;;;;;;;;;5119170;27;20035;-76
2020/12/04 09:22:24;;;;;;;24.65;9.77;;;;;;;;;;5118920;27;20019;-81
2020/12/04 09:24:50;;;;;;;22.58;8.52;;;;;;;;;;5119112;27;20395;-80
2020/12/04 09:27:17;;;;;;;26.88;10.65;;;;;;;;;;5118442;27;20030;-80
2020/12/04 09:29:43;;;;;;;20.98;8.43;;;;;;;;;;5118726;27;20027;-80
2020/12/04 09:32:12;;;;;;;22.08;9.57;;;;;;;;;;5118803;27;20026;-80
2020/12/04 09:34:38;;;;;;;22.23;8.07;;;;;;;;;;5118659;27;20125;-80
2020/12/04 09:37:18;;;;;;;20.20;8.02;;;;;;;;;;5119395;27;20043;-78
2020/12/04 09:39:44;;;;;;;17.98;7.40;;;;;;;;;;5119024;27;20027;-75
2020/12/04 09:42:11;;;;;;;24.98;11.20;;;;;;;;;;5137009;27;20106;-74
2020/12/04 09:44:38;;;;;;;25.10;10.60;;;;;;;;;;5118171;27;20027;-74
2020/12/04 09:47:04;;;;;;;26.35;10.23;;;;;;;;;;5118208;27;20027;-78
2020/12/04 09:49:30;;;;;;;38.03;13.70;;;;;;;;;;5118438;27;20079;-77
2020/12/04 09:51:58;;;;;;;24.25;10.73;;;;;;;;;;5118109;27;20451;-74
2020/12/04 09:54:25;;;;;;;28.67;11.68;;;;;;;;;;5131458;27;20036;-77
2020/12/04 09:56:52;;;;;;;29.80;10.00;;;;;;;;;;5106215;27;20038;-74
2020/12/04 09:59:18;;;;;;;23.38;9.40;;;;;;;;;;5127045;27;20147;-76
2020/12/04 10:01:44;;;;;;;25.08;10.02;;;;;;;;;;5097391;28;20023;-76
2020/12/04 10:04:10;;;;;;;24.13;9.90;;;;;;;;;;5097631;28;20020;-74
2020/12/04 10:06:39;;;;;;;24.10;9.27;;;;;;;;;;5115838;28;20023;-75
2020/12/04 10:09:05;;;;;;;26.45;10.35;;;;;;;;;;5097511;28;20395;-74
2020/12/04 10:11:31;;;;;;;27.83;9.98;;;;;;;;;;5097553;28;20476;-74
2020/12/04 10:13:57;;;;;;;18.38;7.40;;;;;;;;;;5115396;28;20040;-74
2020/12/04 10:16:23;;;;;;;26.60;9.52;;;;;;;;;;5115706;28;20020;-74
2020/12/04 10:18:49;;;;;;;25.67;9.40;;;;;;;;;;5118157;27;20038;-76
2020/12/04 10:21:15;;;;;;;21.17;9.45;;;;;;;;;;5107113;27;20019;-74
2020/12/04 10:23:41;;;;;;;27.35;9.93;;;;;;;;;;5106108;27;20057;-74
2020/12/04 10:26:08;;;;;;;31.98;11.10;;;;;;;;;;5108276;28;20117;-74
2020/12/04 10:28:34;;;;;;;30.25;12.30;;;;;;;;;;5115093;28;20028;-77
2020/12/04 10:31:00;;;;;;;30.05;12.73;;;;;;;;;;5115783;28;20380;-74
2020/12/04 10:33:26;;;;;;;29.17;10.73;;;;;;;;;;5096908;28;20480;-73
2020/12/04 10:35:52;;;;;;;32.38;12.43;;;;;;;;;;5096867;28;20024;-76
2020/12/04 10:38:18;;;;;;;22.38;9.10;;;;;;;;;;5096743;28;20046;-74
2020/12/04 10:40:44;;;;;;;29.55;10.77;;;;;;;;;;5114819;28;20493;-75
2020/12/04 10:43:10;;;;;;;26.98;8.77;;;;;;;;;;5097115;28;20066;-75
2020/12/04 10:45:36;;;;;;;25.98;9.38;;;;;;;;;;5096821;28;20019;-74
2020/12/04 10:48:02;;;;;;;34.38;14.05;;;;;;;;;;5096889;28;20036;-74
2020/12/04 10:50:29;;;;;;;33.63;12.10;;;;;;;;;;5096258;28;20039;-74
2020/12/04 10:52:55;;;;;;;24.35;10.30;;;;;;;;;;5096556;28;20460;-75
2020/12/04 10:55:21;;;;;;;29.17;10.48;;;;;;;;;;5114153;28;20028;-75
2020/12/04 10:57:47;;;;;;;21.25;9.57;;;;;;;;;;5096468;28;20420;-75
2020/12/04 11:00:13;;;;;;;23.00;8.80;;;;;;;;;;5096421;28;20023;-75
2020/12/04 11:02:41;;;;;;;28.50;12.00;;;;;;;;;;5099117;27;20026;-74
2020/12/04 11:07:52;;;;;;;37.13;11.45;;;;;;;;;;5114627;28;20112;-75
2020/12/04 11:10:19;;;;;;;26.42;11.55;;;;;;;;;;5096191;28;20111;-74
2020/12/04 11:12:45;;;;;;;34.03;13.98;;;;;;;;;;5114485;28;20024;-74
2020/12/04 11:15:11;;;;;;;30.20;12.70;;;;;;;;;;5095856;28;20036;-74
2020/12/04 11:17:39;;;;;;;33.53;13.35;;;;;;;;;;5119860;27;20119;-75
2020/12/04 11:20:05;;;;;;;31.85;12.55;;;;;;;;;;5122999;27;20448;-74
2020/12/04 11:22:33;;;;;;;32.88;12.60;;;;;;;;;;5125914;27;20030;-73
2020/12/04 11:25:00;;;;;;;24.33;9.05;;;;;;;;;;5107151;27;20055;-74
2020/12/04 11:27:26;;;;;;;30.77;12.23;;;;;;;;;;5105151;27;20027;-75
2020/12/04 11:29:52;;;;;;;34.63;11.30;;;;;;;;;;5106239;27;20019;-76
2020/12/04 11:32:19;;;;;;;27.17;10.07;;;;;;;;;;5123061;27;20023;-75
2020/12/04 11:34:45;;;;;;;21.52;9.00;;;;;;;;;;5124095;27;20479;-74
2020/12/04 11:37:12;;;;;;;22.90;10.52;;;;;;;;;;5124404;27;20019;-74
2020/12/04 11:39:44;;;;;;;39.45;14.00;;;;;;;;;;5122902;27;20107;-74
2020/12/04 11:42:11;;;;;;;26.92;10.57;;;;;;;;;;5123525;27;20039;-75
2020/12/04 11:44:37;;;;;;;29.65;11.70;;;;;;;;;;5106105;27;20425;-76
2020/12/04 11:47:04;;;;;;;26.70;11.00;;;;;;;;;;5120145;27;20027;-76
2020/12/04 11:49:30;;;;;;;23.35;9.02;;;;;;;;;;5127109;27;20350;-75
2020/12/04 11:51:56;;;;;;;32.63;13.63;;;;;;;;;;5118774;27;20066;-75
2020/12/04 11:54:22;;;;;;;40.08;12.98;;;;;;;;;;5112234;28;20031;-74
2020/12/04 11:56:50;;;;;;;25.67;9.77;;;;;;;;;;5124586;27;20395;-75
2020/12/04 11:59:20;;;;;;;27.08;11.52;;;;;;;;;;5117632;27;20034;-75
2020/12/04 12:01:46;;;;;;;27.90;8.95;;;;;;;;;;5095298;28;20020;-75
2020/12/04 12:04:18;;;;;;;28.05;11.07;;;;;;;;;;5095329;28;20080;-74
2020/12/04 12:06:44;;;;;;;26.35;11.75;;;;;;;;;;5113474;28;20465;-75
2020/12/04 12:09:10;;;;;;;31.17;10.63;;;;;;;;;;5113756;28;20027;-75
2020/12/04 12:11:36;;;;;;;25.98;11.82;;;;;;;;;;5095082;28;20028;-76
2020/12/04 12:14:02;;;;;;;22.15;9.38;;;;;;;;;;5095424;28;20477;-75
2020/12/04 12:16:29;;;;;;;34.47;12.60;;;;;;;;;;5105668;27;20360;-75
2020/12/04 12:18:55;;;;;;;32.22;13.10;;;;;;;;;;5103101;28;20016;-76
2020/12/04 12:21:25;;;;;;;36.97;14.15;;;;;;;;;;5106134;28;20027;-75
2020/12/04 12:23:51;;;;;;;27.48;11.75;;;;;;;;;;5118986;27;20380;-74
2020/12/04 12:26:17;;;;;;;36.67;12.70;;;;;;;;;;5113412;28;20031;-74
2020/12/04 12:28:43;;;;;;;24.08;11.52;;;;;;;;;;5113153;28;20019;-74
2020/12/04 12:31:09;;;;;;;31.42;13.75;;;;;;;;;;5094808;28;20024;-74
2020/12/04 12:33:35;;;;;;;28.45;12.45;;;;;;;;;;5094973;28;20043;-74
2020/12/04 12:36:01;;;;;;;28.50;12.57;;;;;;;;;;5102900;28;20027;-74
2020/12/04 12:38:27;;;;;;;28.98;12.73;;;;;;;;;;5105796;28;20023;-75
2020/12/04 12:40:54;;;;;;;34.30;13.43;;;;;;;;;;5104259;28;20362;-76
2020/12/04 12:43:20;;;;;;;30.20;12.10;;;;;;;;;;5104063;28;20027;-75
2020/12/04 12:45:46;;;;;;;27.30;12.73;;;;;;;;;;5105748;28;20487;-75
2020/12/04 12:48:12;;;;;;;30.38;11.38;;;;;;;;;;5110163;28;20059;-75
2020/12/04 12:50:38;;;;;;;30.77;13.07;;;;;;;;;;5112020;28;20067;-75
2020/12/04 12:53:04;;;;;;;31.42;11.93;;;;;;;;;;5105320;28;20490;-75
2020/12/04 12:55:30;;;;;;;29.48;10.38;;;;;;;;;;5122575;28;20039;-76
2020/12/04 12:57:56;;;;;;;38.13;13.27;;;;;;;;;;5122517;28;20041;-74
2020/12/04 13:00:22;;;;;;;23.92;9.50;;;;;;;;;;5103616;28;20027;-74
2020/12/04 13:02:49;;;;;;;26.52;11.25;;;;;;;;;;5121960;28;20062;-75
2020/12/04 13:05:34;;;;;;;25.00;12.98;;;;;;;;;;5123665;27;20015;-74
2020/12/04 13:08:01;;;;;;;28.75;11.13;;;;;;;;;;5121377;28;20444;-74
2020/12/04 13:10:27;;;;;;;28.75;11.35;;;;;;;;;;5123739;28;20031;-75
2020/12/04 13:12:53;;;;;;;25.88;12.23;;;;;;;;;;5121488;28;20024;-74
2020/12/04 13:15:20;;;;;;;30.08;12.48;;;;;;;;;;5123070;28;20033;-74
2020/12/04 13:17:47;;;;;;;28.52;12.65;;;;;;;;;;5104610;27;20012;-74
2020/12/04 13:20:13;;;;;;;27.90;11.68;;;;;;;;;;5125361;27;20080;-75
2020/12/04 13:22:39;;;;;;;37.58;12.57;;;;;;;;;;5126969;27;20023;-74
2020/12/04 13:25:06;;;;;;;26.15;10.50;;;;;;;;;;5126947;27;20070;-74
2020/12/04 13:27:32;;;;;;;29.30;13.35;;;;;;;;;;5106776;27;20152;-74
2020/12/04 13:29:59;;;;;;;34.72;12.20;;;;;;;;;;5108747;27;20020;-74
2020/12/04 13:32:25;;;;;;;32.58;13.13;;;;;;;;;;5106840;27;20503;-75
2020/12/04 13:34:51;;;;;;;34.63;12.40;;;;;;;;;;5106666;27;20036;-75
2020/12/04 13:37:17;;;;;;;29.58;12.80;;;;;;;;;;5126793;27;20387;-75
2020/12/04 13:39:43;;;;;;;34.72;12.77;;;;;;;;;;5107970;27;20027;-74
2020/12/04 13:42:09;;;;;;;34.25;13.85;;;;;;;;;;5106671;27;20026;-75
2020/12/04 13:44:38;;;;;;;27.88;10.30;;;;;;;;;;5121213;27;20011;-75
2020/12/04 13:47:04;;;;;;;34.38;13.95;;;;;;;;;;5106186;27;20114;-75
2020/12/04 13:49:31;;;;;;;29.15;12.35;;;;;;;;;;5109521;27;20524;-74
2020/12/04 13:51:57;;;;;;;24.88;11.90;;;;;;;;;;5124423;27;20500;-74
2020/12/04 13:54:23;;;;;;;34.80;12.00;;;;;;;;;;5126306;27;20361;-75
2020/12/04 13:56:49;;;;;;;33.05;12.70;;;;;;;;;;5108106;27;20015;-75
2020/12/04 13:59:15;;;;;;;38.97;13.77;;;;;;;;;;5106356;27;20015;-74
2020/12/04 14:01:42;;;;;;;27.27;11.52;;;;;;;;;;5107142;27;20068;-74
2020/12/04 14:04:09;;;;;;;29.10;12.57;;;;;;;;;;5106495;27;20115;-74
2020/12/04 14:06:36;;;;;;;30.02;12.68;;;;;;;;;;5129803;27;20149;-74
2020/12/04 14:09:02;;;;;;;31.75;13.55;;;;;;;;;;5124564;27;20054;-75
2020/12/04 14:11:30;;;;;;;30.25;11.25;;;;;;;;;;5107872;27;20027;-73
2020/12/04 14:13:56;;;;;;;38.20;12.60;;;;;;;;;;5107420;27;20027;-74
2020/12/04 14:16:22;;;;;;;26.65;11.20;;;;;;;;;;5105961;27;20027;-74
2020/12/04 14:18:48;;;;;;;29.25;11.07;;;;;;;;;;5108667;27;20047;-73
2020/12/04 14:21:14;;;;;;;25.08;10.57;;;;;;;;;;5106920;27;20027;-74
2020/12/04 14:23:41;;;;;;;32.75;13.48;;;;;;;;;;5113521;27;20084;-74